Time;durP1;ratioP1;P1;durP2;ratioP2;P2;SDS_P1;SDS_P2;PMS_P1;PMS_P2;Temp;Humidity;BMP_temperature;BMP_pressure;BME280_temperature;BME280_humidity;BME280_pressure;Samples;Min_cycle;Max_cycle;Signal;HPM_P1;HPM_P2
2022/03/01 00:01:49;;;;;;;22.05;10.43;;;;;;;2.10;51.93;100409.94;5173181;28;20566;-69
2022/03/01 00:04:39;;;;;;;21.80;10.38;;;;;;;1.88;52.32;100418.53;5165781;28;20105;-68
2022/03/01 00:07:29;;;;;;;22.95;10.60;;;;;;;1.81;52.78;100406.59;5167924;28;20750;-69
2022/03/01 00:10:19;;;;;;;25.10;10.90;;;;;;;1.98;51.38;100407.75;5153071;28;20585;-67
2022/03/01 00:13:10;;;;;;;23.58;10.40;;;;;;;2.09;50.79;100421.31;5173961;28;20050;-68
2022/03/01 00:15:59;;;;;;;23.13;10.43;;;;;;;1.94;51.99;100416.63;5160270;28;20057;-68
2022/03/01 00:18:50;;;;;;;22.48;10.70;;;;;;;1.97;51.50;100419.13;5171531;28;20552;-68
2022/03/01 00:21:40;;;;;;;28.30;10.88;;;;;;;1.71;52.66;100422.66;5156117;28;20046;-67
2022/03/01 00:24:30;;;;;;;22.60;10.95;;;;;;;1.57;52.98;100415.28;5174820;28;20057;-67
2022/03/01 00:27:21;;;;;;;24.15;10.73;;;;;;;1.56;53.16;100416.22;5178641;28;20482;-67
2022/03/01 00:30:11;;;;;;;21.33;10.75;;;;;;;1.49;53.24;100415.56;5176898;28;20762;-68
2022/03/01 00:33:02;;;;;;;27.33;11.13;;;;;;;1.25;53.93;100422.44;5167300;28;20061;-68
2022/03/01 00:35:52;;;;;;;29.15;11.23;;;;;;;1.13;54.23;100420.25;5161025;28;20525;-68
2022/03/01 00:38:41;;;;;;;25.55;10.95;;;;;;;0.94;54.65;100380.78;5175544;28;20116;-68
2022/03/01 00:41:32;;;;;;;25.77;11.00;;;;;;;1.18;54.42;100423.53;5156036;28;20054;-68
2022/03/01 00:44:22;;;;;;;25.88;11.18;;;;;;;1.00;55.14;100426.75;5173107;28;20078;-68
2022/03/01 00:47:13;;;;;;;22.33;10.60;;;;;;;0.91;54.77;100414.81;5160978;28;20057;-68
2022/03/01 00:50:04;;;;;;;24.98;11.05;;;;;;;0.91;54.23;100412.22;5165572;28;20089;-68
2022/03/01 00:52:54;;;;;;;27.13;10.98;;;;;;;1.08;53.77;100416.91;5168286;28;20100;-67
2022/03/01 00:55:45;;;;;;;23.75;11.30;;;;;;;0.76;54.83;100418.75;5178628;28;20097;-67
2022/03/01 00:58:35;;;;;;;27.05;11.80;;;;;;;0.83;55.04;100409.84;5191382;28;20065;-68
2022/03/01 01:01:25;;;;;;;24.30;10.63;;;;;;;0.78;55.20;100401.28;5190961;28;20667;-68
2022/03/01 01:04:15;;;;;;;27.30;11.93;;;;;;;0.62;56.09;100407.88;5173795;28;20499;-68
2022/03/01 01:07:06;;;;;;;27.90;11.70;;;;;;;0.83;55.27;100408.97;5167952;28;20427;-68
2022/03/01 01:09:56;;;;;;;27.63;11.50;;;;;;;1.02;54.56;100411.88;5170470;28;20053;-68
2022/03/01 01:12:46;;;;;;;29.05;10.95;;;;;;;0.79;55.76;100405.59;5171086;28;20061;-68
2022/03/01 01:15:37;;;;;;;29.80;11.48;;;;;;;0.95;54.17;100403.38;5163960;28;20061;-68
2022/03/01 01:18:27;;;;;;;30.30;12.15;;;;;;;0.76;55.05;100400.47;5161193;28;20058;-68
2022/03/01 01:21:17;;;;;;;27.70;11.55;;;;;;;0.53;55.83;100382.94;5164398;28;20111;-68
2022/03/01 01:24:07;;;;;;;24.67;11.35;;;;;;;0.50;55.88;100392.59;5169735;28;20581;-69
2022/03/01 01:26:57;;;;;;;24.75;11.27;;;;;;;0.64;56.28;100393.03;5170473;28;20097;-67
2022/03/01 01:29:47;;;;;;;34.03;12.65;;;;;;;1.16;53.87;100392.25;5167574;28;20058;-68
2022/03/01 01:32:38;;;;;;;29.55;12.15;;;;;;;1.21;53.86;100384.25;5155976;28;20510;-67
2022/03/01 01:35:31;;;;;;;31.92;13.23;;;;;;;0.91;53.96;100392.19;5174424;28;20531;-67
2022/03/01 01:38:21;;;;;;;29.45;11.95;;;;;;;0.63;54.75;100367.81;5193693;28;20530;-67
2022/03/01 01:41:11;;;;;;;28.73;11.88;;;;;;;0.72;54.32;100377.13;5178595;28;20061;-68
2022/03/01 01:44:05;;;;;;;27.05;12.38;;;;;;;1.13;52.62;100371.44;5167089;28;20201;-67
2022/03/01 01:46:56;;;;;;;32.25;12.32;;;;;;;1.38;53.04;100376.69;5171599;28;20049;-67
2022/03/01 01:49:46;;;;;;;30.77;12.65;;;;;;;0.92;53.15;100388.66;5155664;28;20054;-67
2022/03/01 01:52:37;;;;;;;29.38;11.88;;;;;;;0.44;54.44;100378.84;5174416;28;20054;-67
2022/03/01 01:55:28;;;;;;;29.50;11.93;;;;;;;0.27;54.39;100370.66;5153367;28;20176;-67
2022/03/01 01:58:19;;;;;;;28.25;12.05;;;;;;;0.64;55.04;100380.00;5171184;28;20049;-67
2022/03/01 02:01:09;;;;;;;25.95;11.90;;;;;;;0.67;54.68;100377.28;5180103;28;20054;-66
2022/03/01 02:04:00;;;;;;;31.40;12.43;;;;;;;0.79;54.87;100381.25;5165237;28;20046;-67
2022/03/01 02:06:51;;;;;;;32.65;13.45;;;;;;;0.91;54.28;100371.28;5167627;28;20422;-67
2022/03/01 02:09:42;;;;;;;30.27;12.27;;;;;;;1.04;53.39;100376.13;5169823;28;20120;-67
2022/03/01 02:12:33;;;;;;;31.30;12.82;;;;;;;0.45;55.35;100367.50;5169843;28;20156;-67
2022/03/01 02:15:24;;;;;;;32.33;12.88;;;;;;;1.31;54.21;100366.50;5166812;28;20057;-68
2022/03/01 02:18:15;;;;;;;32.83;13.52;;;;;;;0.87;54.54;100359.22;5169394;28;20156;-67
2022/03/01 02:21:06;;;;;;;35.47;12.63;;;;;;;0.73;55.64;100371.88;5168259;28;20057;-68
2022/03/01 02:23:56;;;;;;;25.33;12.00;;;;;;;0.77;55.33;100360.44;5160806;28;20054;-67
2022/03/01 02:26:46;;;;;;;31.17;13.15;;;;;;;1.01;54.68;100363.16;5153184;28;20046;-67
2022/03/01 02:29:36;;;;;;;29.33;12.50;;;;;;;1.27;52.25;100357.06;5153301;28;20143;-67
2022/03/01 02:32:26;;;;;;;28.83;11.85;;;;;;;1.14;53.39;100361.84;5158101;28;20119;-68
2022/03/01 02:35:17;;;;;;;30.45;12.32;;;;;;;1.33;52.43;100357.72;5178337;28;20057;-67
2022/03/01 02:38:07;;;;;;;27.92;12.43;;;;;;;1.03;53.27;100359.59;5189332;28;20074;-68
2022/03/01 02:40:58;;;;;;;28.15;11.32;;;;;;;1.12;52.73;100364.50;5177214;28;20096;-68
2022/03/01 02:43:47;;;;;;;26.55;12.02;;;;;;;0.76;54.58;100376.97;5148085;28;20188;-69
2022/03/01 02:46:39;;;;;;;26.35;12.65;;;;;;;0.23;55.87;100376.84;5161930;28;20151;-67
2022/03/01 02:49:30;;;;;;;28.90;12.38;;;;;;;-0.02;57.58;100361.91;5162074;28;20073;-67
2022/03/01 02:52:20;;;;;;;33.25;13.30;;;;;;;-0.10;56.85;100350.88;5177416;28;20448;-68
2022/03/01 02:55:10;;;;;;;31.63;13.32;;;;;;;0.56;57.41;100374.13;5167089;28;20058;-67
2022/03/01 02:58:01;;;;;;;30.38;13.10;;;;;;;0.19;57.72;100356.97;5162062;28;20057;-67
2022/03/01 03:00:51;;;;;;;31.00;12.30;;;;;;;0.32;56.22;100344.44;5178262;28;20053;-67
2022/03/01 03:03:44;;;;;;;33.33;13.32;;;;;;;0.12;56.55;100363.28;5171959;28;20076;-67
2022/03/01 03:06:34;;;;;;;28.27;11.50;;;;;;;0.46;55.01;100357.91;5165951;28;20062;-67
2022/03/01 03:09:24;;;;;;;35.30;12.88;;;;;;;0.61;53.75;100361.81;5154615;28;20050;-67
2022/03/01 03:12:14;;;;;;;27.05;12.00;;;;;;;0.26;55.26;100358.50;5179370;28;20058;-67
2022/03/01 03:15:07;;;;;;;28.75;12.18;;;;;;;0.34;54.81;100353.94;5161099;28;20448;-68
2022/03/01 03:17:58;;;;;;;30.88;12.50;;;;;;;0.05;55.80;100362.59;5161777;28;20046;-68
2022/03/01 03:20:48;;;;;;;31.77;12.32;;;;;;;-0.07;55.78;100365.53;5193318;22;20057;-68
2022/03/01 03:23:38;;;;;;;26.90;11.27;;;;;;;-0.30;56.65;100372.28;5178930;28;20065;-67
2022/03/01 03:26:28;;;;;;;28.17;12.23;;;;;;;-0.36;56.30;100367.22;5181465;28;20060;-69
2022/03/01 03:29:18;;;;;;;36.25;13.35;;;;;;;-0.40;56.27;100365.56;5179533;28;20056;-69
2022/03/01 03:32:10;;;;;;;27.63;12.38;;;;;;;-0.53;56.48;100364.19;5146711;28;20496;-70
2022/03/01 03:35:01;;;;;;;30.42;12.25;;;;;;;-0.61;58.53;100379.19;5160682;28;20424;-70
2022/03/01 03:37:51;;;;;;;27.98;12.80;;;;;;;-0.62;58.49;100375.72;5148711;28;20508;-69
2022/03/01 03:40:41;;;;;;;28.33;11.65;;;;;;;-0.69;59.40;100370.72;5161058;28;20050;-69
2022/03/01 03:43:31;;;;;;;36.03;12.88;;;;;;;-0.87;58.69;100362.47;5144027;28;20133;-69
2022/03/01 03:46:21;;;;;;;28.27;12.05;;;;;;;-0.98;58.80;100354.91;5161444;28;20050;-69
2022/03/01 03:49:11;;;;;;;31.63;12.57;;;;;;;-0.88;59.33;100333.88;5159909;28;20136;-70
2022/03/01 03:52:03;;;;;;;35.67;13.52;;;;;;;-0.55;58.11;100369.47;5157662;28;20188;-69
2022/03/01 03:54:53;;;;;;;27.40;12.05;;;;;;;-0.65;58.56;100365.38;5169396;28;20550;-68
2022/03/01 03:57:43;;;;;;;26.48;11.38;;;;;;;-0.85;58.11;100368.50;5160607;28;20053;-69
2022/03/01 04:00:33;;;;;;;34.90;12.88;;;;;;;-1.07;57.98;100342.13;5160419;28;20054;-68
2022/03/01 04:03:23;;;;;;;29.77;12.13;;;;;;;-0.94;57.09;100366.13;5158564;28;20427;-69
2022/03/01 04:06:13;;;;;;;32.35;12.40;;;;;;;-0.69;57.94;100376.78;5159947;28;20122;-69
2022/03/01 04:09:05;;;;;;;29.67;12.63;;;;;;;-0.62;57.89;100367.91;5174477;28;20057;-70
2022/03/01 04:11:55;;;;;;;29.92;12.57;;;;;;;-0.75;57.93;100361.31;5144451;28;20073;-70
2022/03/01 04:14:45;;;;;;;28.48;12.48;;;;;;;-0.55;57.18;100366.00;5159859;28;20054;-68
2022/03/01 04:17:36;;;;;;;31.27;12.43;;;;;;;-0.37;56.77;100370.69;5158593;28;20054;-69
2022/03/01 04:20:26;;;;;;;28.17;12.40;;;;;;;-0.43;56.19;100360.47;5160069;28;20061;-70
2022/03/01 04:23:17;;;;;;;28.17;12.60;;;;;;;-0.29;55.95;100365.31;5160643;28;20200;-69
2022/03/01 04:26:07;;;;;;;31.05;12.50;;;;;;;0.07;54.89;100366.03;5155465;28;20147;-70
2022/03/01 04:28:57;;;;;;;30.13;12.20;;;;;;;0.53;53.51;100353.34;5160056;28;20578;-70
2022/03/01 04:31:47;;;;;;;32.67;12.88;;;;;;;0.05;53.98;100359.13;5162799;28;20356;-70
2022/03/01 04:34:38;;;;;;;30.35;12.70;;;;;;;-0.49;55.96;100355.41;5162276;28;20058;-69
2022/03/01 04:37:30;;;;;;;25.70;11.10;;;;;;;-0.12;54.03;100354.41;5160411;28;20050;-69
2022/03/01 04:40:20;;;;;;;29.60;12.82;;;;;;;-0.28;55.45;100333.97;5149993;28;20413;-69
2022/03/01 04:43:10;;;;;;;26.95;12.38;;;;;;;0.07;53.41;100332.13;5164155;28;20061;-70
2022/03/01 04:46:00;;;;;;;31.00;12.35;;;;;;;0.24;53.60;100347.28;5163351;28;20046;-69
2022/03/01 04:48:51;;;;;;;31.55;12.30;;;;;;;0.16;53.47;100344.03;5164722;28;20047;-69
2022/03/01 04:51:41;;;;;;;34.22;12.57;;;;;;;0.32;53.49;100340.06;5163980;28;20070;-69
2022/03/01 04:54:31;;;;;;;30.05;11.57;;;;;;;0.42;52.64;100335.41;5163872;28;20085;-69
2022/03/01 04:57:21;;;;;;;33.38;12.57;;;;;;;0.23;53.88;100329.91;5162984;28;20428;-69
2022/03/01 05:00:12;;;;;;;38.13;12.90;;;;;;;0.29;53.36;100327.09;5162521;28;20145;-69
2022/03/01 05:03:03;;;;;;;30.95;12.27;;;;;;;0.44;53.65;100320.59;5154653;28;20464;-69
2022/03/01 05:05:53;;;;;;;28.02;11.32;;;;;;;0.08;53.98;100314.72;5163019;28;20061;-69
2022/03/01 05:08:44;;;;;;;28.25;12.27;;;;;;;0.48;53.01;100322.19;5151592;28;20054;-69
2022/03/01 05:11:35;;;;;;;32.22;12.48;;;;;;;0.50;52.96;100314.28;5162545;28;20085;-69
2022/03/01 05:14:26;;;;;;;29.65;12.35;;;;;;;0.28;53.10;100325.41;5163526;28;20051;-71
2022/03/01 05:17:16;;;;;;;29.95;12.30;;;;;;;0.05;53.91;100336.53;5162527;28;20394;-71
2022/03/01 05:20:07;;;;;;;28.02;12.70;;;;;;;-0.52;55.38;100319.03;5163461;28;20504;-72
2022/03/01 05:22:58;;;;;;;30.58;13.23;;;;;;;-0.40;55.09;100325.63;5163853;28;20524;-71
2022/03/01 05:25:48;;;;;;;37.13;13.02;;;;;;;-0.32;55.57;100337.56;5162964;28;20084;-71
2022/03/01 05:28:38;;;;;;;26.20;11.85;;;;;;;-0.42;55.16;100343.09;5158699;28;20054;-71
2022/03/01 05:31:29;;;;;;;28.00;12.48;;;;;;;-0.51;55.93;100345.03;5163619;28;20137;-71
2022/03/01 05:34:19;;;;;;;34.35;14.55;;;;;;;-0.27;56.29;100333.06;5163335;28;20068;-70
2022/03/01 05:37:10;;;;;;;29.88;13.65;;;;;;;0.06;54.53;100330.41;5162818;28;20104;-71
2022/03/01 05:40:04;;;;;;;32.38;13.98;;;;;;;-0.10;55.45;100324.81;5162335;28;20061;-69
2022/03/01 05:42:55;;;;;;;33.58;13.35;;;;;;;-0.28;55.55;100325.31;5162141;28;20052;-68
2022/03/01 05:45:45;;;;;;;35.20;13.30;;;;;;;-0.58;56.77;100334.81;5163038;28;20392;-69
2022/03/01 05:48:34;;;;;;;31.10;13.20;;;;;;;-0.60;57.03;100337.44;5160117;28;20046;-71
2022/03/01 05:51:24;;;;;;;36.55;12.68;;;;;;;-0.93;56.93;100343.53;5163527;28;20061;-71
2022/03/01 05:54:15;;;;;;;30.10;11.98;;;;;;;-1.13;57.84;100349.22;5163139;28;20061;-72
2022/03/01 05:57:06;;;;;;;30.10;11.93;;;;;;;-1.25;57.29;100359.06;5162871;28;20514;-72
2022/03/01 06:00:04;;;;;;;35.28;12.32;;;;;;;-1.27;57.08;100368.63;5162622;28;20046;-70
2022/03/01 06:03:01;;;;;;;30.52;12.77;;;;;;;-1.45;57.19;100349.09;5152995;28;20077;-70
2022/03/01 06:05:51;;;;;;;29.67;12.48;;;;;;;-1.29;59.04;100366.94;5162982;28;20157;-70
2022/03/01 06:08:41;;;;;;;32.75;12.55;;;;;;;-1.29;58.08;100365.22;5159533;28;20089;-71
2022/03/01 06:11:31;;;;;;;36.15;13.68;;;;;;;-1.26;58.18;100359.06;5161994;28;20432;-71
2022/03/01 06:14:21;;;;;;;32.35;13.57;;;;;;;-1.35;58.25;100362.75;5161445;28;20165;-71
2022/03/01 06:17:11;;;;;;;34.72;13.25;;;;;;;-1.53;57.64;100344.94;5162376;28;20128;-71
2022/03/01 06:20:02;;;;;;;34.70;13.73;;;;;;;-1.40;57.02;100368.94;5175330;28;20050;-69
2022/03/01 06:22:53;;;;;;;31.10;13.00;;;;;;;-1.72;58.63;100352.34;5162644;28;20057;-70
2022/03/01 06:25:44;;;;;;;33.40;13.40;;;;;;;-1.53;59.19;100373.56;5159086;28;20078;-69
2022/03/01 06:28:35;;;;;;;31.88;12.57;;;;;;;-1.53;59.02;100376.16;5160230;28;20043;-70
2022/03/01 06:31:26;;;;;;;30.42;11.95;;;;;;;-1.70;57.83;100353.97;5151749;28;20050;-70
2022/03/01 06:34:16;;;;;;;28.15;12.40;;;;;;;-1.61;58.17;100385.91;5160418;28;20109;-70
2022/03/01 06:37:12;;;;;;;33.75;13.73;;;;;;;-1.52;58.54;100390.91;5151824;28;20837;-70
2022/03/01 06:40:06;;;;;;;29.55;11.90;;;;;;;-1.64;57.54;100376.41;5162030;28;20065;-70
2022/03/01 06:42:57;;;;;;;29.75;12.30;;;;;;;-1.55;57.62;100394.44;5148204;28;20054;-69
2022/03/01 06:45:47;;;;;;;34.60;13.88;;;;;;;-1.57;57.48;100396.19;5158180;28;20129;-68
2022/03/01 06:48:39;;;;;;;34.90;13.02;;;;;;;-1.38;57.42;100406.22;5159981;28;20043;-69
2022/03/01 06:51:29;;;;;;;31.50;12.85;;;;;;;-1.53;58.28;100363.16;5157993;28;20054;-69
2022/03/01 06:54:20;;;;;;;33.03;13.23;;;;;;;-1.21;58.11;100412.72;5161092;28;20524;-69
2022/03/01 06:57:10;;;;;;;37.00;13.27;;;;;;;-1.09;58.22;100411.59;5159102;28;20054;-69
2022/03/01 07:00:00;;;;;;;37.88;12.75;;;;;;;-0.76;57.73;100411.69;5161626;28;20185;-69
2022/03/01 07:02:51;;;;;;;29.23;13.73;;;;;;;-0.27;58.16;100407.81;5160345;28;20054;-69
2022/03/01 07:05:41;;;;;;;39.47;14.27;;;;;;;0.43;55.03;100404.97;5157179;28;20054;-69
2022/03/01 07:08:31;;;;;;;32.78;12.85;;;;;;;0.40;54.88;100395.50;5152841;28;20047;-69
2022/03/01 07:11:22;;;;;;;34.47;13.30;;;;;;;0.62;54.30;100410.50;5156752;28;20475;-68
2022/03/01 07:14:12;;;;;;;33.15;13.27;;;;;;;0.48;55.92;100403.09;5160088;28;20128;-71
2022/03/01 07:17:03;;;;;;;30.40;14.32;;;;;;;0.79;55.05;100405.59;5164170;28;20058;-73
2022/03/01 07:19:54;;;;;;;29.52;12.82;;;;;;;1.55;53.39;100423.16;5147259;28;20046;-71
2022/03/01 07:22:44;;;;;;;32.63;12.45;;;;;;;1.60;51.52;100402.97;5152553;28;20058;-70
2022/03/01 07:25:35;;;;;;;30.80;13.43;;;;;;;1.82;51.88;100434.47;5172641;28;20699;-70
2022/03/01 07:28:26;;;;;;;28.55;12.57;;;;;;;1.97;51.29;100424.38;5161306;28;20685;-68
2022/03/01 07:31:16;;;;;;;27.20;12.82;;;;;;;2.70;49.78;100423.41;5159070;28;20073;-69
2022/03/01 07:34:06;;;;;;;31.02;11.93;;;;;;;3.87;47.23;100424.72;5157527;28;20052;-70
2022/03/01 07:36:56;;;;;;;31.60;12.63;;;;;;;3.89;46.80;100425.53;5159187;28;20070;-70
2022/03/01 07:39:46;;;;;;;26.30;12.60;;;;;;;3.94;46.54;100423.53;5157085;28;20432;-67
2022/03/01 07:42:37;;;;;;;27.23;12.40;;;;;;;3.75;46.58;100431.38;5169420;28;20058;-68
2022/03/01 07:45:27;;;;;;;30.83;12.45;;;;;;;4.21;46.43;100434.63;5158831;28;20077;-67
2022/03/01 07:48:17;;;;;;;30.98;13.07;;;;;;;4.97;43.19;100435.50;5154936;28;20669;-68
2022/03/01 07:51:09;;;;;;;25.88;11.95;;;;;;;5.57;41.64;100435.22;5159808;28;20050;-67
2022/03/01 07:53:59;;;;;;;28.23;12.38;;;;;;;5.68;41.06;100411.00;5160451;28;20058;-67
2022/03/01 07:56:50;;;;;;;28.05;12.90;;;;;;;5.47;41.36;100434.81;5145374;28;20069;-67
2022/03/01 07:59:40;;;;;;;26.17;12.32;;;;;;;5.69;41.53;100434.56;5161125;28;20057;-67
2022/03/01 08:02:31;;;;;;;26.73;12.20;;;;;;;5.04;41.67;100441.31;5162810;28;20140;-67
2022/03/01 08:05:22;;;;;;;26.38;11.13;;;;;;;4.72;41.84;100410.38;5155887;28;20692;-68
2022/03/01 08:08:16;;;;;;;26.73;11.75;;;;;;;5.48;40.82;100422.53;5161153;28;20180;-67
2022/03/01 08:11:06;;;;;;;25.00;11.70;;;;;;;5.30;41.85;100411.13;5162619;28;20061;-67
2022/03/01 08:14:04;;;;;;;24.10;11.32;;;;;;;5.94;39.64;100420.22;5162456;28;20061;-68
2022/03/01 08:16:54;;;;;;;23.63;11.95;;;;;;;6.37;39.91;100415.31;5159378;28;20251;-71
2022/03/01 08:19:44;;;;;;;24.05;11.20;;;;;;;6.38;38.36;100412.59;5162434;28;20057;-66
2022/03/01 08:22:35;;;;;;;24.55;11.10;;;;;;;5.94;40.63;100405.25;5162492;28;20520;-69
2022/03/01 08:25:26;;;;;;;28.42;12.20;;;;;;;6.67;38.86;100402.25;5162630;28;20089;-67
2022/03/01 08:28:19;;;;;;;;;;;;;;;6.52;38.81;100394.28;5162761;28;20510;-66
2022/03/01 08:31:09;;;;;;;23.08;10.80;;;;;;;6.04;40.06;100398.59;5176494;28;19937;-69
2022/03/01 08:34:03;;;;;;;20.73;11.02;;;;;;;6.56;38.15;100385.25;5154563;28;20579;-69
2022/03/01 08:36:58;;;;;;;23.67;11.30;;;;;;;6.01;38.34;100398.75;5161614;28;20054;-69
2022/03/01 08:39:48;;;;;;;22.65;11.40;;;;;;;5.96;39.65;100397.28;5160817;28;20050;-69
2022/03/01 08:42:39;;;;;;;23.60;10.73;;;;;;;6.43;37.61;100404.47;5160729;28;20069;-69
2022/03/01 08:45:32;;;;;;;21.27;10.98;;;;;;;7.11;38.47;100399.75;5158990;28;20200;-67
2022/03/01 08:48:22;;;;;;;20.23;10.23;;;;;;;6.59;37.94;100402.69;5159491;28;20419;-69
2022/03/01 08:51:12;;;;;;;24.02;9.98;;;;;;;7.14;38.67;100377.63;5161274;28;20062;-68
2022/03/01 08:54:02;;;;;;;21.90;10.73;;;;;;;7.41;36.41;100394.50;5163883;28;20145;-69
2022/03/01 08:56:53;;;;;;;22.58;11.50;;;;;;;6.78;36.29;100389.31;5163404;28;20568;-69
2022/03/01 08:59:44;;;;;;;22.60;11.07;;;;;;;7.03;38.15;100383.53;5148695;28;20129;-68
2022/03/01 09:02:34;;;;;;;24.17;10.85;;;;;;;8.02;33.93;100383.91;5158096;28;20054;-68
2022/03/01 09:05:25;;;;;;;24.52;10.65;;;;;;;6.53;36.90;100372.25;5158898;28;20111;-70
2022/03/01 09:08:16;;;;;;;24.73;11.50;;;;;;;7.49;35.81;100376.44;5159641;28;20678;-70
2022/03/01 09:11:07;;;;;;;20.17;10.20;;;;;;;7.64;34.83;100364.13;5161727;28;20061;-69
2022/03/01 09:13:58;;;;;;;18.80;10.30;;;;;;;7.50;34.79;100364.94;5160731;28;20050;-70
2022/03/01 09:16:50;;;;;;;21.40;11.32;;;;;;;7.91;35.38;100336.97;5160928;28;20403;-71
2022/03/01 09:19:40;;;;;;;20.77;10.10;;;;;;;7.87;34.75;100359.25;5160147;28;20062;-74
2022/03/01 09:22:31;;;;;;;19.48;10.60;;;;;;;7.68;34.98;100365.66;5161367;28;20050;-70
2022/03/01 09:25:21;;;;;;;18.65;9.40;;;;;;;7.74;34.64;100367.06;5163848;28;20200;-68
2022/03/01 09:28:11;;;;;;;16.70;9.00;;;;;;;8.00;34.35;100358.41;5162031;28;20701;-68
2022/03/01 09:31:03;;;;;;;18.25;10.25;;;;;;;7.66;34.76;100350.84;5161753;28;20046;-67
2022/03/01 09:33:54;;;;;;;19.42;9.30;;;;;;;8.23;35.29;100359.63;5149089;28;20105;-68
2022/03/01 09:36:44;;;;;;;19.17;9.63;;;;;;;8.33;34.94;100353.78;5162350;28;20069;-66
2022/03/01 09:39:40;;;;;;;17.02;9.63;;;;;;;8.17;34.55;100360.00;5163471;28;20133;-69
2022/03/01 09:42:32;;;;;;;22.08;10.48;;;;;;;8.87;33.62;100335.34;5145175;28;20120;-69
2022/03/01 09:45:23;;;;;;;19.48;9.30;;;;;;;9.74;33.71;100347.19;5172273;28;20049;-69
2022/03/01 09:48:20;;;;;;;19.45;9.55;;;;;;;9.50;32.72;100349.69;5162121;28;20551;-69
2022/03/01 09:51:11;;;;;;;19.20;10.18;;;;;;;8.62;32.96;100338.75;5157468;28;20042;-71
2022/03/01 09:54:02;;;;;;;20.98;10.70;;;;;;;9.35;32.24;100331.25;5162738;28;20062;-70
2022/03/01 09:56:52;;;;;;;16.90;9.40;;;;;;;10.42;31.72;100338.88;5145994;28;20120;-68
2022/03/01 09:59:43;;;;;;;20.75;10.25;;;;;;;9.34;31.62;100326.09;5163035;28;20081;-69
2022/03/01 10:02:36;;;;;;;18.05;9.82;;;;;;;9.16;32.84;100328.13;5161973;28;20057;-70
2022/03/01 10:05:34;;;;;;;21.58;9.93;;;;;;;9.83;31.17;100338.59;5155804;28;20165;-70
2022/03/01 10:08:24;;;;;;;22.20;9.95;;;;;;;9.46;32.69;100333.16;5162699;28;20148;-67
2022/03/01 10:11:18;;;;;;;17.88;9.30;;;;;;;10.21;30.93;100325.31;5160371;28;20077;-68
2022/03/01 10:14:09;;;;;;;22.75;9.90;;;;;;;10.34;30.92;100306.78;5161915;28;20054;-68
2022/03/01 10:17:12;;;;;;;20.27;9.80;;;;;;;11.05;31.07;100331.63;5161958;28;20516;-67
2022/03/01 10:20:10;;;;;;;18.83;10.43;;;;;;;10.88;30.59;100329.38;5161210;28;20306;-68
2022/03/01 10:23:03;;;;;;;19.05;9.38;;;;;;;10.15;30.46;100315.16;5160720;28;20654;-67
2022/03/01 10:25:53;;;;;;;20.88;10.07;;;;;;;10.12;31.33;100325.97;5159849;28;20101;-67
2022/03/01 10:28:45;;;;;;;19.27;10.38;;;;;;;10.65;30.04;100302.72;5162258;28;20077;-68
2022/03/01 10:31:35;;;;;;;21.55;9.95;;;;;;;11.34;29.39;100316.19;5161315;28;20424;-68
2022/03/01 10:34:26;;;;;;;20.17;10.90;;;;;;;11.19;29.78;100312.88;5161414;28;20054;-70
2022/03/01 10:37:26;;;;;;;16.55;9.55;;;;;;;10.95;30.43;100310.22;5146141;28;20054;-68
2022/03/01 10:40:21;;;;;;;17.42;9.27;;;;;;;10.77;31.36;100309.81;5160163;28;20050;-67
2022/03/01 10:43:13;;;;;;;20.23;8.98;;;;;;;11.26;29.26;100305.31;5161664;28;20944;-69
2022/03/01 10:46:06;;;;;;;20.38;9.73;;;;;;;11.29;28.39;100310.34;5160419;28;20066;-70
2022/03/01 10:49:05;;;;;;;18.48;9.85;;;;;;;11.13;29.82;100305.38;5158336;28;20057;-68
2022/03/01 10:52:03;;;;;;;21.50;10.13;;;;;;;10.79;31.20;100304.38;5157344;28;20584;-69
2022/03/01 10:54:54;;;;;;;17.63;9.57;;;;;;;11.21;29.37;100292.34;5161427;28;20057;-67
2022/03/01 10:57:57;;;;;;;14.15;8.90;;;;;;;10.44;30.24;100309.63;5154246;28;20428;-70
2022/03/01 11:00:47;;;;;;;17.67;9.18;;;;;;;10.53;29.87;100306.31;5157556;28;20061;-68
2022/03/01 11:03:39;;;;;;;18.52;9.80;;;;;;;10.14;30.18;100302.88;5159439;28;20350;-69
2022/03/01 11:06:30;;;;;;;19.58;9.57;;;;;;;9.87;30.82;100284.47;5160233;28;20053;-68
2022/03/01 11:09:24;;;;;;;17.75;9.38;;;;;;;9.93;30.72;100297.25;5152144;28;20054;-69
2022/03/01 11:12:18;;;;;;;19.20;9.45;;;;;;;8.82;34.76;100300.44;5158218;28;20137;-72
2022/03/01 11:15:43;;;;;;;18.17;10.13;;;;;;;9.94;29.87;100291.03;5162487;28;20385;-67
2022/03/01 11:18:56;;;;;;;18.08;9.48;;;;;;;9.34;30.37;100289.03;5161942;28;20065;-70
2022/03/01 11:21:50;;;;;;;18.25;9.55;;;;;;;9.51;30.97;100277.28;5161338;28;20153;-69
2022/03/01 11:24:40;;;;;;;26.10;9.70;;;;;;;9.74;31.88;100284.47;5162131;28;20066;-67
2022/03/01 11:27:43;;;;;;;18.10;8.88;;;;;;;9.07;32.03;100276.69;5161699;28;20054;-69
2022/03/01 11:30:36;;;;;;;17.00;9.15;;;;;;;9.83;30.18;100282.97;5160838;28;20061;-68
2022/03/01 11:33:29;;;;;;;18.73;9.20;;;;;;;9.92;30.46;100270.88;5160897;28;20588;-68
2022/03/01 11:36:24;;;;;;;16.08;8.50;;;;;;;9.65;31.87;100277.16;5161725;28;20251;-69
2022/03/01 11:39:16;;;;;;;19.75;9.30;;;;;;;9.78;31.32;100280.66;5180747;28;20459;-69
2022/03/01 11:42:16;;;;;;;18.20;8.82;;;;;;;9.74;31.00;100278.34;5164815;28;20057;-67
2022/03/01 11:45:10;;;;;;;14.23;7.93;;;;;;;9.55;31.23;100271.66;5168026;28;20042;-68
2022/03/01 11:48:06;;;;;;;16.23;8.85;;;;;;;9.65;32.17;100263.91;5168052;28;20120;-69
2022/03/01 11:51:03;;;;;;;22.13;10.50;;;;;;;9.82;29.26;100271.53;5168047;28;20496;-69
2022/03/01 11:53:56;;;;;;;16.25;8.45;;;;;;;8.55;29.47;100271.34;5168119;28;20065;-70
2022/03/01 11:56:49;;;;;;;18.05;8.60;;;;;;;8.28;29.93;100264.22;5168531;28;20058;-69
2022/03/01 11:59:40;;;;;;;16.33;8.60;;;;;;;9.34;31.18;100258.09;5168400;28;20050;-69
2022/03/01 12:02:45;;;;;;;18.85;9.55;;;;;;;9.31;29.00;100254.81;5179702;28;20292;-70
2022/03/01 12:05:37;;;;;;;15.10;7.80;;;;;;;9.55;31.06;100254.91;5167338;28;20054;-68
2022/03/01 12:08:28;;;;;;;15.77;8.10;;;;;;;9.75;29.51;100250.88;5168097;28;20060;-69
2022/03/01 12:11:31;;;;;;;13.70;7.97;;;;;;;10.01;30.51;100252.53;5166274;28;20046;-68
2022/03/01 12:14:28;;;;;;;19.48;8.30;;;;;;;9.19;31.78;100253.84;5168328;28;20464;-70
2022/03/01 12:17:19;;;;;;;15.85;8.80;;;;;;;9.73;29.94;100252.78;5148013;28;20058;-70
2022/03/01 12:20:12;;;;;;;15.32;8.18;;;;;;;9.84;30.50;100244.94;5147986;28;20054;-68
2022/03/01 12:23:03;;;;;;;18.63;10.05;;;;;;;10.55;27.74;100233.59;5147815;28;20521;-70
2022/03/01 12:25:53;;;;;;;21.83;9.32;;;;;;;10.29;29.78;100242.63;5147316;28;20465;-70
2022/03/01 12:28:45;;;;;;;15.60;7.50;;;;;;;10.22;28.43;100225.44;5160709;28;20050;-70
2022/03/01 12:31:35;;;;;;;16.17;8.15;;;;;;;10.30;29.68;100226.63;5166050;28;20078;-69
2022/03/01 12:34:31;;;;;;;19.25;8.20;;;;;;;9.27;30.49;100214.47;5168010;28;20564;-69
2022/03/01 12:37:27;;;;;;;15.95;8.40;;;;;;;9.88;30.31;100231.38;5167733;28;20057;-69
2022/03/01 12:40:31;;;;;;;15.38;8.27;;;;;;;10.18;29.28;100216.88;5163727;28;20717;-68
2022/03/01 12:43:21;;;;;;;17.60;8.77;;;;;;;9.35;31.98;100214.78;5177411;28;20065;-69
2022/03/01 12:46:11;;;;;;;18.50;8.35;;;;;;;10.24;30.23;100205.81;5167614;28;20163;-70
2022/03/01 12:49:05;;;;;;;15.77;8.13;;;;;;;10.34;28.22;100196.25;5164547;28;20106;-70
2022/03/01 12:51:56;;;;;;;15.40;8.00;;;;;;;10.02;29.22;100187.13;5177608;28;20085;-70
2022/03/01 12:54:48;;;;;;;27.98;13.35;;;;;;;9.31;29.20;100188.66;5165385;28;20738;-69
2022/03/01 12:57:38;;;;;;;13.63;7.45;;;;;;;9.58;29.34;100199.94;5163536;28;20046;-68
2022/03/01 13:00:29;;;;;;;15.25;7.13;;;;;;;9.63;28.39;100196.97;5151203;28;20058;-71
2022/03/01 13:03:28;;;;;;;17.60;8.15;;;;;;;9.86;29.60;100188.22;5163591;28;20421;-70
2022/03/01 13:06:20;;;;;;;13.93;7.57;;;;;;;9.73;27.24;100174.16;5162642;28;20050;-70
2022/03/01 13:09:11;;;;;;;18.48;9.35;;;;;;;8.90;28.51;100165.88;5164327;28;20060;-66